Airfield :
LOGIN :

Register | Disclaimer

   EN    FR    IT 

 










Legend :    VFR   Marginal VFR   IFR   Intensive IFR   Very Intensive IFR
Visi :
Ceiling :
>= 8 km
>= 3000ft
5 to 8 km
1000 to 3000 ft
1500m to 5 km
500 to 1000 ft
800 to 1500m
200 to 500 ft
< 800m
< 200 ft
Symbols :   Thunderstorms  Fog  Heavy snow  Heavy precipitations  Wind > 20 kt
SIGMETs :     Misc.  Thunderstorms  Icing  Turbulence  Mountain Waves  Volcanic Ashes






- Airport Elevation : 24 ft
- IATA code : SGD


EKSB - Sonderborg

CURRENT METAR :
  • 211650Z AUTO 28016G30KT 240V310 9999 RA BKN033/// 08/04 Q0995

EXPIRED METARs :
  • 211620Z 28011KT 240V310 9999 VCSH FEW012 SCT030 09/04 Q0995
  • 211550Z 27009KT 9999 VCSH FEW012 SCT030 09/05 Q0994
  • 211520Z 27009KT 240V310 9999 FEW012 SCT030 09/05 Q0993
  • 211450Z 26008KT 210V290 9999 FEW012 SCT030 09/06 Q0993
  • 211420Z 28012KT 240V300 8000 -SHRA SCT030 09/05 Q0993

TAF AMD TAF EKSB
Valid from the 21 at 12:00 until the 21 at 18:00 UTC


211239Z 2112/2118 28015KT 9999 BKN020
TEMPO 2112/2114 30015G28KT 2500 SHRA BKN010 SCT020CB
TEMPO 2114/2118 SHRA SCT020CB



MET'MAP, your aeronautical weather chart ! - Copyright ORBIFLY December 2007 - Disclaimer

ORBIFLY MET'MAP TEAM :

Programming & Development : Alexandra Zaïnal
Concept & original design : Baudouin d'Aumeries
Assistance for programming : Marc-Olivier Méhu
Technical & hardware support : Manuel Goepfert

Contact : metmap@orbifly.com




SOURCES & CREDITS :

   NOAA